sensor_id;sensor_type;location;lat;lon;timestamp;temperature;humidity
18888;DHT22;9576;47.792;9.628;2022-07-29T00:02:28;19.30;99.90
18888;DHT22;9576;47.792;9.628;2022-07-29T00:05:30;19.30;99.90
18888;DHT22;9576;47.792;9.628;2022-07-29T00:08:32;19.30;99.90
18888;DHT22;9576;47.792;9.628;2022-07-29T00:11:34;19.30;99.90
18888;DHT22;9576;47.792;9.628;2022-07-29T00:14:38;19.30;99.90
18888;DHT22;9576;47.792;9.628;2022-07-29T00:17:40;19.30;99.90
18888;DHT22;9576;47.792;9.628;2022-07-29T00:20:42;19.30;99.90
18888;DHT22;9576;47.792;9.628;2022-07-29T00:23:44;19.30;99.90
18888;DHT22;9576;47.792;9.628;2022-07-29T00:26:46;19.30;99.90
18888;DHT22;9576;47.792;9.628;2022-07-29T00:29:50;19.30;99.90
18888;DHT22;9576;47.792;9.628;2022-07-29T00:32:52;19.20;99.90
18888;DHT22;9576;47.792;9.628;2022-07-29T00:35:54;19.10;99.90
18888;DHT22;9576;47.792;9.628;2022-07-29T00:38:56;19.10;99.90
18888;DHT22;9576;47.792;9.628;2022-07-29T00:41:58;19.10;99.90
18888;DHT22;9576;47.792;9.628;2022-07-29T00:45:02;19.00;99.90
18888;DHT22;9576;47.792;9.628;2022-07-29T00:48:05;18.90;99.90
18888;DHT22;9576;47.792;9.628;2022-07-29T00:51:09;18.90;99.90
18888;DHT22;9576;47.792;9.628;2022-07-29T00:54:12;18.80;99.90
18888;DHT22;9576;47.792;9.628;2022-07-29T00:57:14;18.70;99.90
18888;DHT22;9576;47.792;9.628;2022-07-29T01:00:21;18.70;99.90
18888;DHT22;9576;47.792;9.628;2022-07-29T01:03:23;18.70;99.90
18888;DHT22;9576;47.792;9.628;2022-07-29T01:06:26;18.60;99.90
18888;DHT22;9576;47.792;9.628;2022-07-29T01:09:28;18.40;99.90
18888;DHT22;9576;47.792;9.628;2022-07-29T01:12:32;18.50;99.90
18888;DHT22;9576;47.792;9.628;2022-07-29T01:15:41;18.40;99.90
18888;DHT22;9576;47.792;9.628;2022-07-29T01:18:49;18.40;99.90
18888;DHT22;9576;47.792;9.628;2022-07-29T01:21:55;18.40;99.90
18888;DHT22;9576;47.792;9.628;2022-07-29T01:28:45;18.00;99.90
18888;DHT22;9576;47.792;9.628;2022-07-29T01:31:54;18.00;99.90
18888;DHT22;9576;47.792;9.628;2022-07-29T01:35:02;18.00;99.90
18888;DHT22;9576;47.792;9.628;2022-07-29T01:38:09;17.90;99.90
18888;DHT22;9576;47.792;9.628;2022-07-29T01:41:15;17.80;99.90
18888;DHT22;9576;47.792;9.628;2022-07-29T01:44:23;17.80;99.90
18888;DHT22;9576;47.792;9.628;2022-07-29T01:47:31;17.70;99.90
18888;DHT22;9576;47.792;9.628;2022-07-29T01:50:36;17.70;99.90
18888;DHT22;9576;47.792;9.628;2022-07-29T01:53:51;17.60;99.90
18888;DHT22;9576;47.792;9.628;2022-07-29T01:56:56;17.50;99.90
18888;DHT22;9576;47.792;9.628;2022-07-29T02:00:03;17.50;99.90
18888;DHT22;9576;47.792;9.628;2022-07-29T02:03:09;17.50;99.90
18888;DHT22;9576;47.792;9.628;2022-07-29T02:06:14;17.40;99.90
18888;DHT22;9576;47.792;9.628;2022-07-29T02:09:19;17.40;99.90
18888;DHT22;9576;47.792;9.628;2022-07-29T02:12:22;17.40;99.90
18888;DHT22;9576;47.792;9.628;2022-07-29T02:15:29;17.40;99.90
18888;DHT22;9576;47.792;9.628;2022-07-29T02:18:33;17.40;99.90
18888;DHT22;9576;47.792;9.628;2022-07-29T02:21:37;17.40;99.90
18888;DHT22;9576;47.792;9.628;2022-07-29T02:24:41;17.30;99.90
18888;DHT22;9576;47.792;9.628;2022-07-29T02:27:44;17.40;99.90
18888;DHT22;9576;47.792;9.628;2022-07-29T02:30:50;17.40;99.90
18888;DHT22;9576;47.792;9.628;2022-07-29T02:33:53;17.30;99.90
18888;DHT22;9576;47.792;9.628;2022-07-29T02:36:56;17.30;99.90
18888;DHT22;9576;47.792;9.628;2022-07-29T02:40:00;17.20;99.90
18888;DHT22;9576;47.792;9.628;2022-07-29T02:43:04;17.10;99.90
18888;DHT22;9576;47.792;9.628;2022-07-29T02:46:11;17.00;99.90
18888;DHT22;9576;47.792;9.628;2022-07-29T02:49:18;17.00;99.90
18888;DHT22;9576;47.792;9.628;2022-07-29T02:52:27;17.00;99.90
18888;DHT22;9576;47.792;9.628;2022-07-29T02:55:35;17.10;99.90
18888;DHT22;9576;47.792;9.628;2022-07-29T02:58:41;17.10;99.90
18888;DHT22;9576;47.792;9.628;2022-07-29T03:01:46;17.00;99.90
18888;DHT22;9576;47.792;9.628;2022-07-29T03:04:49;17.10;99.90
18888;DHT22;9576;47.792;9.628;2022-07-29T03:07:55;17.10;99.90
18888;DHT22;9576;47.792;9.628;2022-07-29T03:10:57;17.10;99.90
18888;DHT22;9576;47.792;9.628;2022-07-29T03:14:00;17.00;99.90
18888;DHT22;9576;47.792;9.628;2022-07-29T03:17:04;17.10;99.90
18888;DHT22;9576;47.792;9.628;2022-07-29T03:20:08;17.00;99.90
18888;DHT22;9576;47.792;9.628;2022-07-29T03:23:10;17.00;99.90
18888;DHT22;9576;47.792;9.628;2022-07-29T03:26:13;17.00;99.90
18888;DHT22;9576;47.792;9.628;2022-07-29T03:29:15;17.10;99.90
18888;DHT22;9576;47.792;9.628;2022-07-29T03:32:19;17.00;99.90
18888;DHT22;9576;47.792;9.628;2022-07-29T03:35:21;17.00;99.90
18888;DHT22;9576;47.792;9.628;2022-07-29T03:38:25;17.00;99.90
18888;DHT22;9576;47.792;9.628;2022-07-29T03:41:30;17.00;99.90
18888;DHT22;9576;47.792;9.628;2022-07-29T03:44:34;17.10;99.90
18888;DHT22;9576;47.792;9.628;2022-07-29T03:47:42;17.00;99.90
18888;DHT22;9576;47.792;9.628;2022-07-29T03:50:47;17.00;99.90
18888;DHT22;9576;47.792;9.628;2022-07-29T03:53:49;17.00;99.90
18888;DHT22;9576;47.792;9.628;2022-07-29T03:56:52;17.00;99.90
18888;DHT22;9576;47.792;9.628;2022-07-29T03:59:56;16.90;99.90
18888;DHT22;9576;47.792;9.628;2022-07-29T04:02:59;16.90;99.90
18888;DHT22;9576;47.792;9.628;2022-07-29T04:06:04;17.00;99.90
18888;DHT22;9576;47.792;9.628;2022-07-29T04:09:08;17.00;99.90
18888;DHT22;9576;47.792;9.628;2022-07-29T04:12:10;17.10;99.90
18888;DHT22;9576;47.792;9.628;2022-07-29T04:15:12;17.20;99.90
18888;DHT22;9576;47.792;9.628;2022-07-29T04:18:16;17.30;99.90
18888;DHT22;9576;47.792;9.628;2022-07-29T04:21:18;17.40;99.90
18888;DHT22;9576;47.792;9.628;2022-07-29T04:24:20;17.50;99.90
18888;DHT22;9576;47.792;9.628;2022-07-29T04:27:22;17.60;99.90
18888;DHT22;9576;47.792;9.628;2022-07-29T04:30:24;17.70;99.90
18888;DHT22;9576;47.792;9.628;2022-07-29T04:33:28;17.80;99.90
18888;DHT22;9576;47.792;9.628;2022-07-29T04:36:30;17.90;99.90
18888;DHT22;9576;47.792;9.628;2022-07-29T04:39:32;17.90;99.90
18888;DHT22;9576;47.792;9.628;2022-07-29T04:42:34;18.00;99.90
18888;DHT22;9576;47.792;9.628;2022-07-29T04:45:36;18.00;99.90
18888;DHT22;9576;47.792;9.628;2022-07-29T04:48:40;18.10;99.90
18888;DHT22;9576;47.792;9.628;2022-07-29T04:51:42;18.10;99.90
18888;DHT22;9576;47.792;9.628;2022-07-29T04:54:44;18.10;99.90
18888;DHT22;9576;47.792;9.628;2022-07-29T04:57:46;18.10;99.90
18888;DHT22;9576;47.792;9.628;2022-07-29T05:00:48;18.10;99.90
18888;DHT22;9576;47.792;9.628;2022-07-29T05:03:52;18.20;99.90
18888;DHT22;9576;47.792;9.628;2022-07-29T05:06:54;18.20;99.90
18888;DHT22;9576;47.792;9.628;2022-07-29T05:09:56;18.20;99.90
18888;DHT22;9576;47.792;9.628;2022-07-29T05:12:58;18.20;99.90
18888;DHT22;9576;47.792;9.628;2022-07-29T05:16:00;18.20;99.90
18888;DHT22;9576;47.792;9.628;2022-07-29T05:19:04;18.30;99.90
18888;DHT22;9576;47.792;9.628;2022-07-29T05:22:06;18.40;99.90
18888;DHT22;9576;47.792;9.628;2022-07-29T05:25:09;18.30;99.90
18888;DHT22;9576;47.792;9.628;2022-07-29T05:28:11;18.30;99.90
18888;DHT22;9576;47.792;9.628;2022-07-29T05:31:13;18.40;99.90
18888;DHT22;9576;47.792;9.628;2022-07-29T05:34:17;18.30;99.90
18888;DHT22;9576;47.792;9.628;2022-07-29T05:37:20;18.40;99.90
18888;DHT22;9576;47.792;9.628;2022-07-29T05:40:22;18.50;99.90
18888;DHT22;9576;47.792;9.628;2022-07-29T05:43:24;18.50;99.90
18888;DHT22;9576;47.792;9.628;2022-07-29T05:46:26;18.60;99.90
18888;DHT22;9576;47.792;9.628;2022-07-29T05:49:30;18.70;99.90
18888;DHT22;9576;47.792;9.628;2022-07-29T05:52:32;18.70;99.90
18888;DHT22;9576;47.792;9.628;2022-07-29T05:55:34;18.80;99.90
18888;DHT22;9576;47.792;9.628;2022-07-29T05:58:36;18.80;99.90
18888;DHT22;9576;47.792;9.628;2022-07-29T06:01:38;18.80;99.90
18888;DHT22;9576;47.792;9.628;2022-07-29T06:04:43;18.80;99.90
18888;DHT22;9576;47.792;9.628;2022-07-29T06:07:45;18.90;99.90
18888;DHT22;9576;47.792;9.628;2022-07-29T06:10:47;18.90;99.90
18888;DHT22;9576;47.792;9.628;2022-07-29T06:13:50;18.90;99.90
18888;DHT22;9576;47.792;9.628;2022-07-29T06:16:52;19.00;99.90
18888;DHT22;9576;47.792;9.628;2022-07-29T06:19:56;19.00;99.90
18888;DHT22;9576;47.792;9.628;2022-07-29T06:22:58;19.00;99.90
18888;DHT22;9576;47.792;9.628;2022-07-29T06:26:01;19.00;99.90
18888;DHT22;9576;47.792;9.628;2022-07-29T06:29:03;19.10;99.90
18888;DHT22;9576;47.792;9.628;2022-07-29T06:32:06;19.20;99.90
18888;DHT22;9576;47.792;9.628;2022-07-29T06:35:11;19.20;99.90
18888;DHT22;9576;47.792;9.628;2022-07-29T06:38:13;19.10;99.90
18888;DHT22;9576;47.792;9.628;2022-07-29T06:41:15;19.10;99.90
18888;DHT22;9576;47.792;9.628;2022-07-29T06:44:18;19.10;99.90
18888;DHT22;9576;47.792;9.628;2022-07-29T06:47:20;19.20;99.90
18888;DHT22;9576;47.792;9.628;2022-07-29T06:50:24;19.30;99.90
18888;DHT22;9576;47.792;9.628;2022-07-29T06:53:26;19.50;99.90
18888;DHT22;9576;47.792;9.628;2022-07-29T06:56:29;19.70;99.90
18888;DHT22;9576;47.792;9.628;2022-07-29T06:59:31;19.90;99.90
18888;DHT22;9576;47.792;9.628;2022-07-29T07:02:33;20.00;99.90
18888;DHT22;9576;47.792;9.628;2022-07-29T07:05:37;20.20;99.90
18888;DHT22;9576;47.792;9.628;2022-07-29T07:08:39;20.30;99.90
18888;DHT22;9576;47.792;9.628;2022-07-29T07:11:41;20.40;99.90
18888;DHT22;9576;47.792;9.628;2022-07-29T07:14:43;20.50;99.90
18888;DHT22;9576;47.792;9.628;2022-07-29T07:17:45;20.50;99.90
18888;DHT22;9576;47.792;9.628;2022-07-29T07:20:49;20.60;99.90
18888;DHT22;9576;47.792;9.628;2022-07-29T07:23:51;20.80;99.90
18888;DHT22;9576;47.792;9.628;2022-07-29T07:26:53;20.90;99.90
18888;DHT22;9576;47.792;9.628;2022-07-29T07:29:55;21.10;99.90
18888;DHT22;9576;47.792;9.628;2022-07-29T07:32:58;21.00;99.90
18888;DHT22;9576;47.792;9.628;2022-07-29T07:36:02;21.20;99.90
18888;DHT22;9576;47.792;9.628;2022-07-29T07:39:04;21.30;99.90
18888;DHT22;9576;47.792;9.628;2022-07-29T07:42:07;21.60;99.90
18888;DHT22;9576;47.792;9.628;2022-07-29T07:45:11;21.80;99.90
18888;DHT22;9576;47.792;9.628;2022-07-29T07:48:13;22.00;99.90
18888;DHT22;9576;47.792;9.628;2022-07-29T07:51:16;22.00;99.90
18888;DHT22;9576;47.792;9.628;2022-07-29T07:54:19;22.20;99.90
18888;DHT22;9576;47.792;9.628;2022-07-29T07:57:21;22.20;99.90
18888;DHT22;9576;47.792;9.628;2022-07-29T08:00:23;22.20;99.90
18888;DHT22;9576;47.792;9.628;2022-07-29T08:03:25;22.30;99.90
18888;DHT22;9576;47.792;9.628;2022-07-29T08:06:29;22.30;99.90
18888;DHT22;9576;47.792;9.628;2022-07-29T08:09:31;22.40;99.90
18888;DHT22;9576;47.792;9.628;2022-07-29T08:12:33;22.40;99.90
18888;DHT22;9576;47.792;9.628;2022-07-29T08:15:36;22.50;99.90
18888;DHT22;9576;47.792;9.628;2022-07-29T08:18:39;22.50;99.90
18888;DHT22;9576;47.792;9.628;2022-07-29T08:21:43;22.40;99.90
18888;DHT22;9576;47.792;9.628;2022-07-29T08:24:45;22.50;99.90
18888;DHT22;9576;47.792;9.628;2022-07-29T08:27:53;22.50;99.90
18888;DHT22;9576;47.792;9.628;2022-07-29T08:30:55;22.50;99.90
18888;DHT22;9576;47.792;9.628;2022-07-29T08:33:57;22.60;99.90
18888;DHT22;9576;47.792;9.628;2022-07-29T08:37:01;22.60;99.90
18888;DHT22;9576;47.792;9.628;2022-07-29T08:40:04;22.70;99.90
18888;DHT22;9576;47.792;9.628;2022-07-29T08:43:08;22.70;99.90
18888;DHT22;9576;47.792;9.628;2022-07-29T08:46:10;22.90;99.90
18888;DHT22;9576;47.792;9.628;2022-07-29T08:49:12;23.10;99.90
18888;DHT22;9576;47.792;9.628;2022-07-29T08:52:16;23.50;99.90
18888;DHT22;9576;47.792;9.628;2022-07-29T08:55:18;23.70;99.90
18888;DHT22;9576;47.792;9.628;2022-07-29T08:58:22;23.60;99.90
18888;DHT22;9576;47.792;9.628;2022-07-29T09:01:27;23.90;99.90
18888;DHT22;9576;47.792;9.628;2022-07-29T09:04:33;24.10;99.90
18888;DHT22;9576;47.792;9.628;2022-07-29T09:07:41;24.20;99.90
18888;DHT22;9576;47.792;9.628;2022-07-29T09:10:45;24.40;99.90
18888;DHT22;9576;47.792;9.628;2022-07-29T09:13:47;24.30;99.90
18888;DHT22;9576;47.792;9.628;2022-07-29T09:16:53;24.00;99.90
18888;DHT22;9576;47.792;9.628;2022-07-29T09:20:08;23.90;99.90
18888;DHT22;9576;47.792;9.628;2022-07-29T09:23:13;23.50;99.90
18888;DHT22;9576;47.792;9.628;2022-07-29T09:26:15;23.30;99.90
18888;DHT22;9576;47.792;9.628;2022-07-29T09:29:19;23.00;99.90
18888;DHT22;9576;47.792;9.628;2022-07-29T09:32:21;22.90;99.90
18888;DHT22;9576;47.792;9.628;2022-07-29T09:35:25;22.70;99.90
18888;DHT22;9576;47.792;9.628;2022-07-29T09:38:29;22.60;99.90
18888;DHT22;9576;47.792;9.628;2022-07-29T09:41:47;22.40;99.90
18888;DHT22;9576;47.792;9.628;2022-07-29T09:44:50;22.30;99.90
18888;DHT22;9576;47.792;9.628;2022-07-29T09:47:52;22.30;99.90
18888;DHT22;9576;47.792;9.628;2022-07-29T09:50:54;22.30;99.90
18888;DHT22;9576;47.792;9.628;2022-07-29T09:54:00;22.40;99.90
18888;DHT22;9576;47.792;9.628;2022-07-29T09:57:06;22.40;99.90
18888;DHT22;9576;47.792;9.628;2022-07-29T10:00:11;22.20;99.90
18888;DHT22;9576;47.792;9.628;2022-07-29T10:03:15;22.20;99.90
18888;DHT22;9576;47.792;9.628;2022-07-29T10:06:18;22.40;99.90
18888;DHT22;9576;47.792;9.628;2022-07-29T10:09:21;22.30;99.90
18888;DHT22;9576;47.792;9.628;2022-07-29T10:12:24;22.20;99.90
18888;DHT22;9576;47.792;9.628;2022-07-29T10:15:31;22.20;99.90
18888;DHT22;9576;47.792;9.628;2022-07-29T10:18:40;22.00;99.90
18888;DHT22;9576;47.792;9.628;2022-07-29T10:21:43;21.90;99.90
18888;DHT22;9576;47.792;9.628;2022-07-29T10:24:46;21.80;99.90
18888;DHT22;9576;47.792;9.628;2022-07-29T10:27:49;21.90;99.90
18888;DHT22;9576;47.792;9.628;2022-07-29T10:31:00;21.90;99.90
18888;DHT22;9576;47.792;9.628;2022-07-29T10:34:07;21.70;99.90
18888;DHT22;9576;47.792;9.628;2022-07-29T10:37:17;21.60;99.90
18888;DHT22;9576;47.792;9.628;2022-07-29T10:40:28;21.50;99.90
18888;DHT22;9576;47.792;9.628;2022-07-29T10:43:49;21.50;99.90
18888;DHT22;9576;47.792;9.628;2022-07-29T10:46:52;21.40;99.90
18888;DHT22;9576;47.792;9.628;2022-07-29T10:49:58;21.40;99.90
18888;DHT22;9576;47.792;9.628;2022-07-29T10:53:01;21.30;99.90
18888;DHT22;9576;47.792;9.628;2022-07-29T10:56:23;21.40;99.90
18888;DHT22;9576;47.792;9.628;2022-07-29T10:59:26;21.60;99.90
18888;DHT22;9576;47.792;9.628;2022-07-29T11:02:46;21.70;99.90
18888;DHT22;9576;47.792;9.628;2022-07-29T11:05:55;21.90;99.90
18888;DHT22;9576;47.792;9.628;2022-07-29T11:09:15;22.10;99.90
18888;DHT22;9576;47.792;9.628;2022-07-29T11:12:47;22.30;99.90
18888;DHT22;9576;47.792;9.628;2022-07-29T11:15:53;22.50;99.90
18888;DHT22;9576;47.792;9.628;2022-07-29T11:19:20;22.60;99.90
18888;DHT22;9576;47.792;9.628;2022-07-29T11:22:33;22.70;99.90
18888;DHT22;9576;47.792;9.628;2022-07-29T11:25:35;22.60;99.90
18888;DHT22;9576;47.792;9.628;2022-07-29T11:28:48;22.70;99.90
18888;DHT22;9576;47.792;9.628;2022-07-29T11:31:52;22.60;99.90
18888;DHT22;9576;47.792;9.628;2022-07-29T11:35:13;22.60;99.90
18888;DHT22;9576;47.792;9.628;2022-07-29T11:38:25;22.40;99.90
18888;DHT22;9576;47.792;9.628;2022-07-29T11:41:28;22.20;99.90
18888;DHT22;9576;47.792;9.628;2022-07-29T11:44:55;22.30;99.90
18888;DHT22;9576;47.792;9.628;2022-07-29T11:47:59;22.40;99.90
18888;DHT22;9576;47.792;9.628;2022-07-29T11:51:09;22.50;99.90
18888;DHT22;9576;47.792;9.628;2022-07-29T11:54:14;22.70;99.90
18888;DHT22;9576;47.792;9.628;2022-07-29T11:57:19;22.90;99.90
18888;DHT22;9576;47.792;9.628;2022-07-29T12:00:30;23.30;99.90
18888;DHT22;9576;47.792;9.628;2022-07-29T12:03:32;24.00;99.90
18888;DHT22;9576;47.792;9.628;2022-07-29T12:06:35;24.60;99.90
18888;DHT22;9576;47.792;9.628;2022-07-29T12:09:37;25.20;99.90
18888;DHT22;9576;47.792;9.628;2022-07-29T12:12:39;25.60;99.90
18888;DHT22;9576;47.792;9.628;2022-07-29T12:15:52;25.80;99.90
18888;DHT22;9576;47.792;9.628;2022-07-29T12:18:57;26.20;99.90
18888;DHT22;9576;47.792;9.628;2022-07-29T12:22:00;26.40;99.90
18888;DHT22;9576;47.792;9.628;2022-07-29T12:25:04;25.90;99.90
18888;DHT22;9576;47.792;9.628;2022-07-29T12:28:09;25.60;99.90
18888;DHT22;9576;47.792;9.628;2022-07-29T12:31:15;25.60;99.90
18888;DHT22;9576;47.792;9.628;2022-07-29T12:34:17;26.10;99.90
18888;DHT22;9576;47.792;9.628;2022-07-29T12:37:19;26.50;99.90
18888;DHT22;9576;47.792;9.628;2022-07-29T12:40:21;26.70;99.90
18888;DHT22;9576;47.792;9.628;2022-07-29T12:43:25;26.40;99.90
18888;DHT22;9576;47.792;9.628;2022-07-29T12:46:28;26.10;99.90
18888;DHT22;9576;47.792;9.628;2022-07-29T12:49:30;26.20;99.90
18888;DHT22;9576;47.792;9.628;2022-07-29T12:52:33;26.40;99.90
18888;DHT22;9576;47.792;9.628;2022-07-29T12:55:40;26.80;99.90
18888;DHT22;9576;47.792;9.628;2022-07-29T12:58:43;26.90;99.90
18888;DHT22;9576;47.792;9.628;2022-07-29T13:01:48;27.00;99.90
18888;DHT22;9576;47.792;9.628;2022-07-29T13:04:55;26.90;99.90
18888;DHT22;9576;47.792;9.628;2022-07-29T13:08:10;27.00;99.90
18888;DHT22;9576;47.792;9.628;2022-07-29T13:11:28;27.10;99.90
18888;DHT22;9576;47.792;9.628;2022-07-29T13:14:32;27.10;99.90
18888;DHT22;9576;47.792;9.628;2022-07-29T13:17:40;26.70;99.90
18888;DHT22;9576;47.792;9.628;2022-07-29T13:20:43;26.70;99.90
18888;DHT22;9576;47.792;9.628;2022-07-29T13:23:45;26.60;99.90
18888;DHT22;9576;47.792;9.628;2022-07-29T13:26:47;26.40;99.90
18888;DHT22;9576;47.792;9.628;2022-07-29T13:29:49;25.90;99.90
18888;DHT22;9576;47.792;9.628;2022-07-29T13:32:54;25.60;99.90
18888;DHT22;9576;47.792;9.628;2022-07-29T13:35:56;25.30;99.90
18888;DHT22;9576;47.792;9.628;2022-07-29T13:38:58;25.20;99.90
18888;DHT22;9576;47.792;9.628;2022-07-29T13:42:03;25.00;99.90
18888;DHT22;9576;47.792;9.628;2022-07-29T13:45:06;25.10;99.90
18888;DHT22;9576;47.792;9.628;2022-07-29T13:48:10;25.00;99.90
18888;DHT22;9576;47.792;9.628;2022-07-29T13:51:12;25.00;99.90
18888;DHT22;9576;47.792;9.628;2022-07-29T13:54:14;25.10;99.90
18888;DHT22;9576;47.792;9.628;2022-07-29T13:57:17;25.00;99.90
18888;DHT22;9576;47.792;9.628;2022-07-29T14:00:27;24.90;99.90
18888;DHT22;9576;47.792;9.628;2022-07-29T14:03:31;24.90;99.90
18888;DHT22;9576;47.792;9.628;2022-07-29T14:06:34;24.90;99.90
18888;DHT22;9576;47.792;9.628;2022-07-29T14:09:36;24.90;99.90
18888;DHT22;9576;47.792;9.628;2022-07-29T14:12:39;24.60;99.90
18888;DHT22;9576;47.792;9.628;2022-07-29T14:15:42;24.50;99.90
18888;DHT22;9576;47.792;9.628;2022-07-29T14:18:46;24.50;99.90
18888;DHT22;9576;47.792;9.628;2022-07-29T14:21:48;24.50;99.90
18888;DHT22;9576;47.792;9.628;2022-07-29T14:24:50;24.50;99.90
18888;DHT22;9576;47.792;9.628;2022-07-29T14:27:52;24.50;99.90
18888;DHT22;9576;47.792;9.628;2022-07-29T14:30:54;24.50;99.90
18888;DHT22;9576;47.792;9.628;2022-07-29T14:33:58;24.50;99.90
18888;DHT22;9576;47.792;9.628;2022-07-29T14:37:00;24.40;99.90
18888;DHT22;9576;47.792;9.628;2022-07-29T14:40:04;24.40;99.90
18888;DHT22;9576;47.792;9.628;2022-07-29T14:43:06;24.20;99.90
18888;DHT22;9576;47.792;9.628;2022-07-29T14:46:08;24.20;99.90
18888;DHT22;9576;47.792;9.628;2022-07-29T14:49:12;24.00;99.90
18888;DHT22;9576;47.792;9.628;2022-07-29T14:52:14;23.80;99.90
18888;DHT22;9576;47.792;9.628;2022-07-29T14:55:16;23.60;99.90
18888;DHT22;9576;47.792;9.628;2022-07-29T14:58:18;23.40;99.90
18888;DHT22;9576;47.792;9.628;2022-07-29T15:01:23;23.30;99.90
18888;DHT22;9576;47.792;9.628;2022-07-29T15:04:27;23.00;99.90
18888;DHT22;9576;47.792;9.628;2022-07-29T15:07:29;22.60;99.90
18888;DHT22;9576;47.792;9.628;2022-07-29T15:10:31;22.20;99.90
18888;DHT22;9576;47.792;9.628;2022-07-29T15:13:33;21.90;99.90
18888;DHT22;9576;47.792;9.628;2022-07-29T15:16:36;21.50;99.90
18888;DHT22;9576;47.792;9.628;2022-07-29T15:19:40;21.20;99.90
18888;DHT22;9576;47.792;9.628;2022-07-29T15:22:42;21.00;99.90
18888;DHT22;9576;47.792;9.628;2022-07-29T15:25:44;20.70;99.90
18888;DHT22;9576;47.792;9.628;2022-07-29T15:28:46;20.30;99.90
18888;DHT22;9576;47.792;9.628;2022-07-29T15:31:49;19.90;99.90
18888;DHT22;9576;47.792;9.628;2022-07-29T15:34:52;19.50;99.90
18888;DHT22;9576;47.792;9.628;2022-07-29T15:37:54;19.10;99.90
18888;DHT22;9576;47.792;9.628;2022-07-29T15:40:57;18.90;99.90
18888;DHT22;9576;47.792;9.628;2022-07-29T15:43:59;18.70;99.90
18888;DHT22;9576;47.792;9.628;2022-07-29T15:47:01;18.60;99.90
18888;DHT22;9576;47.792;9.628;2022-07-29T15:50:08;18.40;99.90
18888;DHT22;9576;47.792;9.628;2022-07-29T15:53:15;18.40;99.90
18888;DHT22;9576;47.792;9.628;2022-07-29T15:56:17;18.50;99.90
18888;DHT22;9576;47.792;9.628;2022-07-29T15:59:19;18.70;99.90
18888;DHT22;9576;47.792;9.628;2022-07-29T16:02:21;19.10;99.90
18888;DHT22;9576;47.792;9.628;2022-07-29T16:05:25;19.30;99.90
18888;DHT22;9576;47.792;9.628;2022-07-29T16:08:29;19.50;99.90
18888;DHT22;9576;47.792;9.628;2022-07-29T16:11:31;19.70;99.90
18888;DHT22;9576;47.792;9.628;2022-07-29T16:14:33;19.90;99.90
18888;DHT22;9576;47.792;9.628;2022-07-29T16:17:35;19.90;99.90
18888;DHT22;9576;47.792;9.628;2022-07-29T16:20:39;19.90;99.90
18888;DHT22;9576;47.792;9.628;2022-07-29T16:23:42;19.80;99.90
18888;DHT22;9576;47.792;9.628;2022-07-29T16:26:45;19.80;99.90
18888;DHT22;9576;47.792;9.628;2022-07-29T16:29:47;19.70;99.90
18888;DHT22;9576;47.792;9.628;2022-07-29T16:32:50;19.70;99.90
18888;DHT22;9576;47.792;9.628;2022-07-29T16:35:53;19.60;99.90
18888;DHT22;9576;47.792;9.628;2022-07-29T16:38:55;19.50;99.90
18888;DHT22;9576;47.792;9.628;2022-07-29T16:41:57;19.40;99.90
18888;DHT22;9576;47.792;9.628;2022-07-29T16:45:00;19.30;99.90
18888;DHT22;9576;47.792;9.628;2022-07-29T16:48:02;19.20;99.90
18888;DHT22;9576;47.792;9.628;2022-07-29T16:51:06;19.20;99.90
18888;DHT22;9576;47.792;9.628;2022-07-29T16:54:09;19.20;99.90
18888;DHT22;9576;47.792;9.628;2022-07-29T16:57:11;19.20;99.90
18888;DHT22;9576;47.792;9.628;2022-07-29T17:00:15;19.10;99.90
18888;DHT22;9576;47.792;9.628;2022-07-29T17:03:18;19.00;99.90
18888;DHT22;9576;47.792;9.628;2022-07-29T17:06:21;19.00;99.90
18888;DHT22;9576;47.792;9.628;2022-07-29T17:09:23;19.00;99.90
18888;DHT22;9576;47.792;9.628;2022-07-29T17:12:25;18.80;99.90
18888;DHT22;9576;47.792;9.628;2022-07-29T17:15:28;18.80;99.90
18888;DHT22;9576;47.792;9.628;2022-07-29T17:18:30;18.70;99.90
18888;DHT22;9576;47.792;9.628;2022-07-29T17:21:33;18.60;99.90
18888;DHT22;9576;47.792;9.628;2022-07-29T17:24:35;18.60;99.90
18888;DHT22;9576;47.792;9.628;2022-07-29T17:27:39;18.60;99.90
18888;DHT22;9576;47.792;9.628;2022-07-29T17:30:42;18.50;99.90
18888;DHT22;9576;47.792;9.628;2022-07-29T17:33:44;18.50;99.90
18888;DHT22;9576;47.792;9.628;2022-07-29T17:36:47;18.50;99.90
18888;DHT22;9576;47.792;9.628;2022-07-29T17:39:49;18.50;99.90
18888;DHT22;9576;47.792;9.628;2022-07-29T17:42:52;18.40;99.90
18888;DHT22;9576;47.792;9.628;2022-07-29T17:45:54;18.30;99.90
18888;DHT22;9576;47.792;9.628;2022-07-29T17:48:56;18.30;99.90
18888;DHT22;9576;47.792;9.628;2022-07-29T17:52:00;18.20;99.90
18888;DHT22;9576;47.792;9.628;2022-07-29T17:55:02;18.20;99.90
18888;DHT22;9576;47.792;9.628;2022-07-29T17:58:05;18.20;99.90
18888;DHT22;9576;47.792;9.628;2022-07-29T18:01:08;18.20;99.90
18888;DHT22;9576;47.792;9.628;2022-07-29T18:04:10;18.20;99.90
18888;DHT22;9576;47.792;9.628;2022-07-29T18:07:16;18.30;99.90
18888;DHT22;9576;47.792;9.628;2022-07-29T18:10:18;18.30;99.90
18888;DHT22;9576;47.792;9.628;2022-07-29T18:13:20;18.30;99.90
18888;DHT22;9576;47.792;9.628;2022-07-29T18:16:22;18.30;99.90
18888;DHT22;9576;47.792;9.628;2022-07-29T18:19:24;18.40;99.90
18888;DHT22;9576;47.792;9.628;2022-07-29T18:22:28;18.50;99.90
18888;DHT22;9576;47.792;9.628;2022-07-29T18:25:30;18.50;99.90
18888;DHT22;9576;47.792;9.628;2022-07-29T18:28:33;18.50;99.90
18888;DHT22;9576;47.792;9.628;2022-07-29T18:31:35;18.40;99.90
18888;DHT22;9576;47.792;9.628;2022-07-29T18:34:37;18.30;99.90
18888;DHT22;9576;47.792;9.628;2022-07-29T18:37:40;18.30;99.90
18888;DHT22;9576;47.792;9.628;2022-07-29T18:40:43;18.30;99.90
18888;DHT22;9576;47.792;9.628;2022-07-29T18:43:45;18.20;99.90
18888;DHT22;9576;47.792;9.628;2022-07-29T18:46:47;18.20;99.90
18888;DHT22;9576;47.792;9.628;2022-07-29T18:49:49;18.10;99.90
18888;DHT22;9576;47.792;9.628;2022-07-29T18:52:53;18.10;99.90
18888;DHT22;9576;47.792;9.628;2022-07-29T18:55:57;18.10;99.90
18888;DHT22;9576;47.792;9.628;2022-07-29T18:59:01;18.10;99.90
18888;DHT22;9576;47.792;9.628;2022-07-29T19:02:03;18.10;99.90
18888;DHT22;9576;47.792;9.628;2022-07-29T19:05:08;18.10;99.90
18888;DHT22;9576;47.792;9.628;2022-07-29T19:08:11;18.10;99.90
18888;DHT22;9576;47.792;9.628;2022-07-29T19:11:14;18.00;99.90
18888;DHT22;9576;47.792;9.628;2022-07-29T19:14:16;18.10;99.90
18888;DHT22;9576;47.792;9.628;2022-07-29T19:17:18;18.00;99.90
18888;DHT22;9576;47.792;9.628;2022-07-29T19:20:20;17.90;99.90
18888;DHT22;9576;47.792;9.628;2022-07-29T19:23:24;17.80;99.90
18888;DHT22;9576;47.792;9.628;2022-07-29T19:26:26;17.70;99.90
18888;DHT22;9576;47.792;9.628;2022-07-29T19:29:28;17.60;99.90
18888;DHT22;9576;47.792;9.628;2022-07-29T19:32:31;17.50;99.90
18888;DHT22;9576;47.792;9.628;2022-07-29T19:35:34;17.50;99.90
18888;DHT22;9576;47.792;9.628;2022-07-29T19:38:37;17.50;99.90
18888;DHT22;9576;47.792;9.628;2022-07-29T19:41:40;17.50;99.90
18888;DHT22;9576;47.792;9.628;2022-07-29T19:44:42;17.50;99.90